METAR AND TAF INFORMATION
METAR FOR KBDN
ADDS - METARS form results

(0354 UTC 17 May 2021)
Data provider http://aviationweather.gov/metar/data/
 
METAR text: KBDN 170335Z AUTO 32007G13KT 10SM CLR 22/04 A2991 RMK AO2
Conditions at: KBDN (BEND , OR, US) observed 0335 UTC 17 May 2021
Temperature: 22.0°C (72°F)
Dewpoint: 4.0°C (39°F) [RH = 31%]
Pressure (altimeter): 29.91 inches Hg (1013.0 mb)
Winds: from the NW (320 degrees) at 8 MPH (7 knots; 3.6 m/s)
gusting to 15 MPH (13 knots; 6.7 m/s)
Visibility: 10 or more miles (16+ km)
Ceiling: at least 12,000 feet AGL
Clouds: sky clear below 12,000 feet AGL
Weather: automated observation with no human augmentation;
there may or may not be significant weather present at this time

METAR text: KBDN 170315Z AUTO 32009G14KT 10SM CLR 23/04 A2990 RMK AO2
Conditions at: KBDN (BEND , OR, US) observed 0315 UTC 17 May 2021
Temperature: 23.0°C (73°F)
Dewpoint: 4.0°C (39°F) [RH = 29%]
Pressure (altimeter): 29.90 inches Hg (1012.6 mb)
Winds: from the NW (320 degrees) at 10 MPH (9 knots; 4.6 m/s)
gusting to 16 MPH (14 knots; 7.2 m/s)
Visibility: 10 or more miles (16+ km)
Ceiling: at least 12,000 feet AGL
Clouds: sky clear below 12,000 feet AGL
Weather: automated observation with no human augmentation;
there may or may not be significant weather present at this time

METAR text: KBDN 170255Z AUTO 33009G15KT 10SM CLR 24/04 A2990 RMK AO2
Conditions at: KBDN (BEND , OR, US) observed 0255 UTC 17 May 2021
Temperature: 24.0°C (75°F)
Dewpoint: 4.0°C (39°F) [RH = 27%]
Pressure (altimeter): 29.90 inches Hg (1012.6 mb)
Winds: from the NNW (330 degrees) at 10 MPH (9 knots; 4.6 m/s)
gusting to 17 MPH (15 knots; 7.7 m/s)
Visibility: 10 or more miles (16+ km)
Ceiling: at least 12,000 feet AGL
Clouds: sky clear below 12,000 feet AGL
Weather: automated observation with no human augmentation;
there may or may not be significant weather present at this time

Forecast for: KBDN (BEND , OR, US)
Text: KBDN 162322Z 1700/1724 35010G16KT P6SM SKC
Forecast period: 0000 to 0500 UTC 17 May 2021
Forecast type: FROM: standard forecast or significant change
Winds: from the N (350 degrees) at 12 MPH (10 knots; 5.1 m/s)
gusting to 18 MPH (16 knots; 8.2 m/s)
Visibility: 6 or more miles (10+ km)
Clouds: clear skies
Weather: no significant weather forecast for this period
Text: FM170500 VRB03KT P6SM SKC
Forecast period: 0500 to 1800 UTC 17 May 2021
Forecast type: FROM: standard forecast or significant change
Winds: variable direction winds at 3 MPH (3 knots; 1.5 m/s)
Visibility: 6 or more miles (10+ km)
Clouds: clear skies
Weather: no significant weather forecast for this period
Text: FM171800 33008KT P6SM FEW250
Forecast period: 1800 to 2000 UTC 17 May 2021
Forecast type: FROM: standard forecast or significant change
Winds: from the NNW (330 degrees) at 9 MPH (8 knots; 4.1 m/s)
Visibility: 6 or more miles (10+ km)
Ceiling: at least 12,000 feet AGL
Clouds: few clouds at 25000 feet AGL
Weather: no significant weather forecast for this period
Text: FM172000 33016G25KT P6SM SCT250
Forecast period: 2000 UTC 17 May 2021 to 0000 UTC 18 May 2021
Forecast type: FROM: standard forecast or significant change
Winds: from the NNW (330 degrees) at 18 MPH (16 knots; 8.2 m/s)
gusting to 29 MPH (25 knots; 12.9 m/s)
Visibility: 6 or more miles (10+ km)
Ceiling: at least 12,000 feet AGL
Clouds: scattered clouds at 25000 feet AGL
Weather: no significant weather forecast for this period

 AIRPORT MAP

 RUNWAY INFORMATION
Runway 16 Runway length 5200 ft Runway width 75 ft
Runway elevation 3403 ft Runway displaced threshold 0 ft Runway heading 180
Runway 34 Runway length 5200 ft Runway width 75 ft
Runway elevation 3460 ft Runway displaced threshold 0 ft Runway heading 0

 AIRPORT FREQUENCIES

 AIRPORT NEAR NAVIGATION AIDS

-